createdAt,value
2017-04-24T00:00:22.879Z,9.46
2017-04-24T00:01:22.783Z,9.46
2017-04-24T00:02:22.800Z,9.4
2017-04-24T00:03:22.818Z,9.44
2017-04-24T00:04:22.830Z,9.43
2017-04-24T00:05:22.965Z,9.4
2017-04-24T00:06:22.541Z,9.4
2017-04-24T00:07:22.935Z,9.37
2017-04-24T00:08:22.936Z,9.39
2017-04-24T00:09:22.944Z,9.4
2017-04-24T00:10:22.602Z,9.34
2017-04-24T00:11:22.965Z,9.31
2017-04-24T00:12:22.970Z,9.41
2017-04-24T00:13:23.086Z,9.22
2017-04-24T00:14:23.084Z,9.36
2017-04-24T00:15:23.094Z,9.31
2017-04-24T00:16:22.689Z,9.26
2017-04-24T00:17:22.711Z,9.21
2017-04-24T00:18:23.146Z,9.28
2017-04-24T00:19:23.152Z,9.29
2017-04-24T00:20:23.167Z,9.23
2017-04-24T00:21:23.175Z,9.23
2017-04-24T00:22:23.157Z,9.22
2017-04-24T00:23:23.183Z,9.16
2017-04-24T00:24:23.195Z,9.13
2017-04-24T00:25:23.213Z,9.18
2017-04-24T00:26:23.223Z,9.14
2017-04-24T00:27:23.231Z,9.21
2017-04-24T00:28:23.240Z,9.19
2017-04-24T00:29:23.249Z,9.13
2017-04-24T00:30:23.247Z,9.11
2017-04-24T00:31:23.256Z,9.18
2017-04-24T00:32:23.264Z,9.13
2017-04-24T00:33:23.253Z,9.13
2017-04-24T00:34:23.267Z,9.1
2017-04-24T00:35:23.281Z,9.06
2017-04-24T00:36:23.302Z,9.1
2017-04-24T00:37:23.311Z,9.04
2017-04-24T00:38:23.329Z,9.06
2017-04-24T00:39:23.078Z,9.13
2017-04-24T00:40:23.359Z,9.13
2017-04-24T00:41:23.373Z,8.94
2017-04-24T00:42:23.392Z,9
2017-04-24T00:43:23.408Z,9
2017-04-24T00:44:23.420Z,8.99
2017-04-24T00:45:23.429Z,8.94
2017-04-24T00:46:23.450Z,8.97
2017-04-24T00:47:23.459Z,8.97
2017-04-24T00:48:23.478Z,8.99
2017-04-24T00:49:23.183Z,8.85
2017-04-24T00:50:23.188Z,8.95
2017-04-24T00:51:23.528Z,8.84
2017-04-24T00:52:23.533Z,8.88
2017-04-24T00:53:23.551Z,8.88
2017-04-24T00:54:23.252Z,8.88
2017-04-24T00:55:23.582Z,8.78
2017-04-24T00:56:23.598Z,8.92
2017-04-24T00:57:23.605Z,8.91
2017-04-24T00:58:23.621Z,8.76
2017-04-24T00:59:23.644Z,8.76
2017-04-24T01:00:23.657Z,8.82
2017-04-24T01:01:23.666Z,8.81
2017-04-24T01:02:23.679Z,8.81
2017-04-24T01:03:23.707Z,8.78
2017-04-24T01:04:23.830Z,8.88
2017-04-24T01:05:23.727Z,8.82
2017-04-24T01:06:23.739Z,8.76
2017-04-24T01:07:23.749Z,8.76
2017-04-24T01:08:23.779Z,8.73
2017-04-24T01:09:23.878Z,8.79
2017-04-24T01:10:23.888Z,8.74
2017-04-24T01:11:23.896Z,8.71
2017-04-24T01:12:23.519Z,8.71
2017-04-24T01:13:23.883Z,8.66
2017-04-24T01:14:23.881Z,8.7
2017-04-24T01:15:23.890Z,8.69
2017-04-24T01:16:23.900Z,8.69
2017-04-24T01:17:23.998Z,8.74
2017-04-24T01:18:24.007Z,8.66
2017-04-24T01:19:24.006Z,8.71
2017-04-24T01:20:24.015Z,8.73
2017-04-24T01:21:23.956Z,8.66
2017-04-24T01:22:24.063Z,8.67
2017-04-24T01:23:23.979Z,8.69
2017-04-24T01:24:24.097Z,8.71
2017-04-24T01:25:24.104Z,8.64
2017-04-24T01:26:24.037Z,8.58
2017-04-24T01:27:24.039Z,8.63
2017-04-24T01:28:24.145Z,8.56
2017-04-24T01:29:24.153Z,8.56
2017-04-24T01:30:24.162Z,8.55
2017-04-24T01:31:24.171Z,8.52
2017-04-24T01:32:24.215Z,8.52
2017-04-24T01:33:24.178Z,8.52
2017-04-24T01:34:23.887Z,8.52
2017-04-24T01:35:24.161Z,8.58
2017-04-24T01:36:24.176Z,8.48
2017-04-24T01:37:24.186Z,8.45
2017-04-24T01:38:23.988Z,8.49
2017-04-24T01:39:24.217Z,8.46
2017-04-24T01:40:24.230Z,8.49
2017-04-24T01:41:24.242Z,8.48
2017-04-24T01:42:24.256Z,8.49
2017-04-24T01:43:24.276Z,8.52
2017-04-24T01:44:24.290Z,8.44
2017-04-24T01:45:24.297Z,8.48
2017-04-24T01:46:24.310Z,8.48
2017-04-24T01:47:24.332Z,8.44
2017-04-24T01:48:24.344Z,8.44
2017-04-24T01:49:24.358Z,8.28
2017-04-24T01:50:24.384Z,8.33
2017-04-24T01:51:24.382Z,8.34
2017-04-24T01:52:24.397Z,8.33
2017-04-24T01:53:24.414Z,8.36
2017-04-24T01:54:24.427Z,8.37
2017-04-24T01:55:24.442Z,8.3
2017-04-24T01:56:24.469Z,8.31
2017-04-24T01:57:24.468Z,8.33
2017-04-24T01:58:24.486Z,8.34
2017-04-24T01:59:24.503Z,8.37
2017-04-24T02:00:24.512Z,8.34
2017-04-24T02:01:24.527Z,8.34
2017-04-24T02:02:24.538Z,8.2
2017-04-24T02:03:24.562Z,8.33
2017-04-24T02:04:24.569Z,8.3
2017-04-24T02:05:24.589Z,8.2
2017-04-24T02:06:24.603Z,8.24
2017-04-24T02:07:24.610Z,8.27
2017-04-24T02:08:24.627Z,8.24
2017-04-24T02:09:24.753Z,8.26
2017-04-24T02:10:24.756Z,8.24
2017-04-24T02:11:24.760Z,8.23
2017-04-24T02:12:24.679Z,8.27
2017-04-24T02:13:24.381Z,8.2
2017-04-24T02:14:24.787Z,8.23
2017-04-24T02:15:24.724Z,8.19
2017-04-24T02:16:24.806Z,8.16
2017-04-24T02:17:24.982Z,8.12
2017-04-24T02:18:24.823Z,8.19
2017-04-24T02:19:24.833Z,8.12
2017-04-24T02:20:24.829Z,8.12
2017-04-24T02:21:24.898Z,8.18
2017-04-24T02:22:24.923Z,8.09
2017-04-24T02:23:24.947Z,8.12
2017-04-24T02:24:24.968Z,8.09
2017-04-24T02:25:24.966Z,8.12
2017-04-24T02:26:24.971Z,8.09
2017-04-24T02:27:24.979Z,8.1
2017-04-24T02:28:24.589Z,8.1
2017-04-24T02:29:25.004Z,8.1
2017-04-24T02:30:25.013Z,8.01
2017-04-24T02:31:24.947Z,8
2017-04-24T02:32:24.957Z,8
2017-04-24T02:33:25.070Z,8.06
2017-04-24T02:34:25.078Z,7.98
2017-04-24T02:35:25.088Z,8.1
2017-04-24T02:36:25.098Z,8
2017-04-24T02:37:25.035Z,8.01
2017-04-24T02:38:25.047Z,7.98
2017-04-24T02:39:25.062Z,8.01
2017-04-24T02:40:25.077Z,7.98
2017-04-24T02:41:25.087Z,7.98
2017-04-24T02:42:25.103Z,7.98
2017-04-24T02:43:25.121Z,7.94
2017-04-24T02:44:25.130Z,7.95
2017-04-24T02:45:25.140Z,7.98
2017-04-24T02:46:25.154Z,7.85
2017-04-24T02:47:25.172Z,8.01
2017-04-24T02:48:25.213Z,7.98
2017-04-24T02:49:25.197Z,8.03
2017-04-24T02:50:25.212Z,7.98
2017-04-24T02:51:25.224Z,7.98
2017-04-24T02:52:25.237Z,7.93
2017-04-24T02:53:25.253Z,7.91
2017-04-24T02:54:25.266Z,7.85
2017-04-24T02:55:25.283Z,7.94
2017-04-24T02:56:25.292Z,7.94
2017-04-24T02:57:25.306Z,7.93
2017-04-24T02:58:25.332Z,7.8
2017-04-24T02:59:25.338Z,7.85
2017-04-24T03:00:25.354Z,7.87
2017-04-24T03:01:25.365Z,7.83
2017-04-24T03:02:25.401Z,7.79
2017-04-24T03:03:25.390Z,7.79
2017-04-24T03:04:25.406Z,7.76
2017-04-24T03:05:25.417Z,7.79
2017-04-24T03:06:25.431Z,7.79
2017-04-24T03:07:25.441Z,7.75
2017-04-24T03:08:25.469Z,7.82
2017-04-24T03:09:25.481Z,7.79
2017-04-24T03:10:25.478Z,7.79
2017-04-24T03:11:25.499Z,7.76
2017-04-24T03:12:25.515Z,7.8
2017-04-24T03:13:25.561Z,7.73
2017-04-24T03:14:25.542Z,7.72
2017-04-24T03:15:25.559Z,7.67
2017-04-24T03:16:25.569Z,7.69
2017-04-24T03:17:25.587Z,7.7
2017-04-24T03:18:25.601Z,7.7
2017-04-24T03:19:25.618Z,7.72
2017-04-24T03:20:25.626Z,7.72
2017-04-24T03:21:25.632Z,7.76
2017-04-24T03:22:25.652Z,7.67
2017-04-24T03:23:25.667Z,7.66
2017-04-24T03:24:25.675Z,7.67
2017-04-24T03:25:25.374Z,7.72
2017-04-24T03:26:25.706Z,7.61
2017-04-24T03:27:25.717Z,7.66
2017-04-24T03:28:25.740Z,7.69
2017-04-24T03:29:25.748Z,7.63
2017-04-24T03:30:25.754Z,7.7
2017-04-24T03:31:25.461Z,7.61
2017-04-24T03:32:25.789Z,7.66
2017-04-24T03:33:25.805Z,7.6
2017-04-24T03:34:25.830Z,7.56
2017-04-24T03:35:25.822Z,7.6
2017-04-24T03:36:25.839Z,7.67
2017-04-24T03:37:25.854Z,7.6
2017-04-24T03:38:25.871Z,7.63
2017-04-24T03:39:25.884Z,7.56
2017-04-24T03:40:25.893Z,7.54
2017-04-24T03:41:25.908Z,7.53
2017-04-24T03:42:25.946Z,7.53
2017-04-24T03:43:25.936Z,7.56
2017-04-24T03:44:25.960Z,7.53
2017-04-24T03:45:25.960Z,7.43
2017-04-24T03:46:25.974Z,7.47
2017-04-24T03:47:25.987Z,7.5
2017-04-24T03:48:26.012Z,7.47
2017-04-24T03:49:26.016Z,7.51
2017-04-24T03:50:26.025Z,7.42
2017-04-24T03:51:26.045Z,7.45
2017-04-24T03:52:26.059Z,7.48
2017-04-24T03:53:26.072Z,7.42
2017-04-24T03:54:26.172Z,7.38
2017-04-24T03:55:26.095Z,7.45
2017-04-24T03:56:26.110Z,7.45
2017-04-24T03:57:26.123Z,7.43
2017-04-24T03:58:26.264Z,7.45
2017-04-24T03:59:26.153Z,7.4
2017-04-24T04:00:26.160Z,7.38
2017-04-24T04:01:26.180Z,7.48
2017-04-24T04:02:26.190Z,7.4
2017-04-24T04:03:26.218Z,7.38
2017-04-24T04:04:26.232Z,7.35
2017-04-24T04:05:26.232Z,7.35
2017-04-24T04:06:26.242Z,7.38
2017-04-24T04:07:26.260Z,7.35
2017-04-24T04:08:26.273Z,7.29
2017-04-24T04:09:26.289Z,7.31
2017-04-24T04:10:26.300Z,7.38
2017-04-24T04:11:26.319Z,7.31
2017-04-24T04:12:26.323Z,7.29
2017-04-24T04:13:26.345Z,7.33
2017-04-24T04:14:26.355Z,7.33
2017-04-24T04:15:26.363Z,7.35
2017-04-24T04:16:26.381Z,7.31
2017-04-24T04:17:26.396Z,7.31
2017-04-24T04:18:26.412Z,7.31
2017-04-24T04:19:26.110Z,7.29
2017-04-24T04:20:26.439Z,7.39
2017-04-24T04:21:26.439Z,7.33
2017-04-24T04:22:26.462Z,7.35
2017-04-24T04:23:26.469Z,7.32
2017-04-24T04:24:26.488Z,7.39
2017-04-24T04:25:26.502Z,7.32
2017-04-24T04:26:26.508Z,7.42
2017-04-24T04:27:26.209Z,7.36
2017-04-24T04:28:26.542Z,7.33
2017-04-24T04:29:25.928Z,7.31
2017-04-24T04:30:26.571Z,7.36
2017-04-24T04:31:26.265Z,7.33
2017-04-24T04:32:26.588Z,7.36
2017-04-24T04:33:26.613Z,7.35
2017-04-24T04:34:26.613Z,7.35
2017-04-24T04:35:26.629Z,7.36
2017-04-24T04:36:26.641Z,7.38
2017-04-24T04:37:26.662Z,7.35
2017-04-24T04:38:26.674Z,7.4
2017-04-24T04:39:26.686Z,7.36
2017-04-24T04:40:26.695Z,7.35
2017-04-24T04:41:26.711Z,7.4
2017-04-24T04:42:26.721Z,7.35
2017-04-24T04:43:26.423Z,7.4
2017-04-24T04:44:26.755Z,7.35
2017-04-24T04:45:26.765Z,7.33
2017-04-24T04:46:26.783Z,7.33
2017-04-24T04:47:26.787Z,7.38
2017-04-24T04:48:26.802Z,7.35
2017-04-24T04:49:26.816Z,7.36
2017-04-24T04:50:26.825Z,7.33
2017-04-24T04:51:26.842Z,7.35
2017-04-24T04:52:26.854Z,7.38
2017-04-24T04:53:26.877Z,7.36
2017-04-24T04:54:26.884Z,7.38
2017-04-24T04:55:26.902Z,7.4
2017-04-24T04:56:26.910Z,7.42
2017-04-24T04:57:26.929Z,7.42
2017-04-24T04:58:26.935Z,7.4
2017-04-24T04:59:26.952Z,7.42
2017-04-24T05:00:26.970Z,7.43
2017-04-24T05:01:26.977Z,7.47
2017-04-24T05:02:26.989Z,7.42
2017-04-24T05:03:27.004Z,7.42
2017-04-24T05:04:27.013Z,7.39
2017-04-24T05:05:27.035Z,7.38
2017-04-24T05:06:27.044Z,7.35
2017-04-24T05:07:27.053Z,7.45
2017-04-24T05:08:27.077Z,7.38
2017-04-24T05:09:27.090Z,7.39
2017-04-24T05:10:27.090Z,7.4
2017-04-24T05:11:27.105Z,7.4
2017-04-24T05:12:27.121Z,7.38
2017-04-24T05:13:27.136Z,7.33
2017-04-24T05:14:27.152Z,7.33
2017-04-24T05:15:27.159Z,7.35
2017-04-24T05:16:27.173Z,7.31
2017-04-24T05:17:27.186Z,7.28
2017-04-24T05:18:27.199Z,7.29
2017-04-24T05:19:26.903Z,7.32
2017-04-24T05:20:26.912Z,7.28
2017-04-24T05:21:26.928Z,7.33
2017-04-24T05:22:27.250Z,7.29
2017-04-24T05:23:27.273Z,7.25
2017-04-24T05:24:27.277Z,7.28
2017-04-24T05:25:27.296Z,7.29
2017-04-24T05:26:27.346Z,7.29
2017-04-24T05:27:27.321Z,7.32
2017-04-24T05:28:27.332Z,7.28
2017-04-24T05:29:27.348Z,7.28
2017-04-24T05:30:27.476Z,7.39
2017-04-24T05:31:27.485Z,7.35
2017-04-24T05:32:27.492Z,7.31
2017-04-24T05:33:27.505Z,7.28
2017-04-24T05:34:27.513Z,7.38
2017-04-24T05:35:27.522Z,7.31
2017-04-24T05:36:27.530Z,7.32
2017-04-24T05:37:27.448Z,7.35
2017-04-24T05:38:27.539Z,7.33
2017-04-24T05:39:27.507Z,7.36
2017-04-24T05:40:27.516Z,7.31
2017-04-24T05:41:27.528Z,7.35
2017-04-24T05:42:27.534Z,7.39
2017-04-24T05:43:27.562Z,7.4
2017-04-24T05:44:27.232Z,7.35
2017-04-24T05:45:27.247Z,7.38
2017-04-24T05:46:27.573Z,7.43
2017-04-24T05:47:27.687Z,7.36
2017-04-24T05:48:27.609Z,7.5
2017-04-24T05:49:27.610Z,7.42
2017-04-24T05:50:27.627Z,7.45
2017-04-24T05:51:27.666Z,7.4
2017-04-24T05:52:27.801Z,7.45
2017-04-24T05:53:27.669Z,7.47
2017-04-24T05:54:27.674Z,7.47
2017-04-24T05:55:27.804Z,7.45
2017-04-24T05:56:27.773Z,7.5
2017-04-24T05:57:27.806Z,7.53
2017-04-24T05:58:27.813Z,7.53
2017-04-24T05:59:27.823Z,7.53
2017-04-24T06:00:27.758Z,7.53
2017-04-24T06:01:27.768Z,7.63
2017-04-24T06:02:27.788Z,7.57
2017-04-24T06:03:27.799Z,7.61
2017-04-24T06:04:27.806Z,7.61
2017-04-24T06:05:27.820Z,7.69
2017-04-24T06:06:27.838Z,7.63
2017-04-24T06:07:27.844Z,7.73
2017-04-24T06:08:27.861Z,7.75
2017-04-24T06:09:27.877Z,7.69
2017-04-24T06:10:27.897Z,7.7
2017-04-24T06:11:27.898Z,7.77
2017-04-24T06:12:27.913Z,7.85
2017-04-24T06:13:27.925Z,7.8
2017-04-24T06:14:27.938Z,7.82
2017-04-24T06:15:27.978Z,7.82
2017-04-24T06:16:27.969Z,7.95
2017-04-24T06:17:27.979Z,7.9
2017-04-24T06:18:27.991Z,7.98
2017-04-24T06:19:28.007Z,7.94
2017-04-24T06:20:28.013Z,8.03
2017-04-24T06:21:27.718Z,7.98
2017-04-24T06:22:28.043Z,8
2017-04-24T06:23:27.751Z,8.1
2017-04-24T06:24:28.073Z,8.1
2017-04-24T06:25:28.088Z,8.13
2017-04-24T06:26:28.105Z,8.09
2017-04-24T06:27:28.111Z,8.12
2017-04-24T06:28:27.817Z,8.18
2017-04-24T06:29:28.142Z,8.26
2017-04-24T06:30:28.154Z,8.26
2017-04-24T06:31:28.160Z,8.19
2017-04-24T06:32:28.182Z,8.31
2017-04-24T06:33:28.194Z,8.31
2017-04-24T06:34:28.205Z,8.33
2017-04-24T06:35:28.225Z,8.31
2017-04-24T06:36:28.230Z,8.41
2017-04-24T06:37:28.393Z,8.46
2017-04-24T06:38:27.949Z,8.46
2017-04-24T06:39:27.961Z,8.51
2017-04-24T06:40:28.291Z,8.53
2017-04-24T06:41:28.293Z,8.67
2017-04-24T06:42:28.308Z,8.71
2017-04-24T06:43:28.334Z,8.71
2017-04-24T06:44:28.347Z,8.67
2017-04-24T06:45:28.347Z,8.64
2017-04-24T06:46:28.382Z,8.78
2017-04-24T06:47:28.377Z,8.79
2017-04-24T06:48:28.392Z,8.76
2017-04-24T06:49:28.411Z,8.84
2017-04-24T06:50:28.424Z,8.88
2017-04-24T06:51:28.430Z,8.97
2017-04-24T06:52:28.443Z,8.97
2017-04-24T06:53:28.463Z,8.97
2017-04-24T06:54:28.477Z,9.1
2017-04-24T06:55:28.490Z,9.13
2017-04-24T06:56:28.501Z,9.14
2017-04-24T06:57:28.196Z,9.16
2017-04-24T06:58:28.620Z,9.28
2017-04-24T06:59:28.314Z,9.23
2017-04-24T07:00:28.682Z,9.4
2017-04-24T07:01:28.571Z,9.4
2017-04-24T07:02:28.586Z,9.44
2017-04-24T07:03:28.603Z,9.48
2017-04-24T07:04:28.311Z,9.59
2017-04-24T07:05:28.622Z,9.62
2017-04-24T07:06:28.638Z,9.69
2017-04-24T07:07:28.650Z,9.76
2017-04-24T07:08:28.667Z,9.73
2017-04-24T07:09:28.681Z,9.74
2017-04-24T07:10:28.697Z,9.82
2017-04-24T07:11:28.712Z,9.79
2017-04-24T07:12:28.723Z,9.82
2017-04-24T07:13:28.737Z,9.83
2017-04-24T07:14:28.758Z,9.92
2017-04-24T07:15:28.761Z,9.92
2017-04-24T07:16:28.779Z,9.97
2017-04-24T07:17:28.790Z,10.16
2017-04-24T07:18:28.801Z,10.1
2017-04-24T07:19:28.823Z,10.19
2017-04-24T07:20:28.832Z,10.2
2017-04-24T07:21:28.843Z,10.28
2017-04-24T07:22:28.666Z,10.31
2017-04-24T07:23:28.876Z,10.28
2017-04-24T07:24:29.211Z,10.44
2017-04-24T07:25:28.904Z,10.46
2017-04-24T07:26:28.920Z,10.48
2017-04-24T07:27:28.702Z,10.56
2017-04-24T07:28:28.945Z,10.59
2017-04-24T07:29:28.959Z,10.61
2017-04-24T07:30:28.971Z,10.69
2017-04-24T07:31:28.993Z,10.61
2017-04-24T07:32:29.004Z,10.74
2017-04-24T07:33:29.016Z,10.81
2017-04-24T07:34:29.034Z,10.81
2017-04-24T07:35:29.048Z,10.75
2017-04-24T07:36:29.062Z,10.75
2017-04-24T07:37:29.069Z,10.84
2017-04-24T07:38:29.092Z,10.9
2017-04-24T07:39:28.797Z,10.9
2017-04-24T07:40:29.120Z,10.96
2017-04-24T07:41:29.131Z,11
2017-04-24T07:42:29.150Z,11.11
2017-04-24T07:43:28.851Z,11.19
2017-04-24T07:44:29.174Z,11.18
2017-04-24T07:45:29.194Z,11.27
2017-04-24T07:46:29.208Z,11.3
2017-04-24T07:47:28.905Z,11.37
2017-04-24T07:48:28.921Z,11.41
2017-04-24T07:49:28.940Z,11.51
2017-04-24T07:50:28.951Z,11.55
2017-04-24T07:51:29.388Z,11.6
2017-04-24T07:52:29.298Z,11.7
2017-04-24T07:53:29.306Z,11.68
2017-04-24T07:54:29.008Z,11.72
2017-04-24T07:55:29.030Z,11.8
2017-04-24T07:56:29.358Z,11.83
2017-04-24T07:57:29.055Z,11.86
2017-04-24T07:58:29.090Z,11.86
2017-04-24T07:59:29.400Z,11.88
2017-04-24T08:00:29.414Z,11.97
2017-04-24T08:01:29.431Z,12.09
2017-04-24T08:02:29.447Z,12.06
2017-04-24T08:03:29.454Z,12.18
2017-04-24T08:04:29.472Z,12.15
2017-04-24T08:05:29.487Z,12.2
2017-04-24T08:06:29.505Z,12.21
2017-04-24T08:07:29.515Z,12.29
2017-04-24T08:08:29.537Z,12.28
2017-04-24T08:09:29.559Z,12.29
2017-04-24T08:10:28.938Z,12.39
2017-04-24T08:11:29.575Z,12.31
2017-04-24T08:12:29.595Z,12.39
2017-04-24T08:13:29.609Z,12.42
2017-04-24T08:14:29.715Z,12.47
2017-04-24T08:15:29.017Z,12.49
2017-04-24T08:16:29.656Z,12.67
2017-04-24T08:17:29.666Z,12.64
2017-04-24T08:18:29.695Z,12.67
2017-04-24T08:19:29.386Z,12.85
2017-04-24T08:20:29.724Z,12.82
2017-04-24T08:21:29.732Z,12.9
2017-04-24T08:22:29.748Z,12.95
2017-04-24T08:23:29.448Z,12.94
2017-04-24T08:24:29.779Z,13.04
2017-04-24T08:25:29.796Z,13.03
2017-04-24T08:26:29.812Z,13
2017-04-24T08:27:29.831Z,13.11
2017-04-24T08:28:29.844Z,13.08
2017-04-24T08:29:29.857Z,13.13
2017-04-24T08:30:29.560Z,13.18
2017-04-24T08:31:29.891Z,13.22
2017-04-24T08:32:29.904Z,13.11
2017-04-24T08:33:29.924Z,13.13
2017-04-24T08:34:29.939Z,13.11
2017-04-24T08:35:29.949Z,13.04
2017-04-24T08:36:29.659Z,13.03
2017-04-24T08:37:29.982Z,13.09
2017-04-24T08:38:30.002Z,13.08
2017-04-24T08:39:30.015Z,13.15
2017-04-24T08:40:30.029Z,13.19
2017-04-24T08:41:30.045Z,13.19
2017-04-24T08:42:30.066Z,13.2
2017-04-24T08:43:30.076Z,13.33
2017-04-24T08:44:30.103Z,13.37
2017-04-24T08:45:30.137Z,13.46
2017-04-24T08:46:30.128Z,13.53
2017-04-24T08:47:30.143Z,13.59
2017-04-24T08:48:30.165Z,13.67
2017-04-24T08:49:30.178Z,13.7
2017-04-24T08:50:30.201Z,13.78
2017-04-24T08:51:30.207Z,13.78
2017-04-24T08:52:30.227Z,13.77
2017-04-24T08:53:30.241Z,13.79
2017-04-24T08:54:30.259Z,13.78
2017-04-24T08:55:30.271Z,13.86
2017-04-24T08:56:30.289Z,13.87
2017-04-24T08:57:30.315Z,13.89
2017-04-24T08:58:30.321Z,13.96
2017-04-24T08:59:30.339Z,13.92
2017-04-24T09:00:30.407Z,13.9
2017-04-24T09:01:30.367Z,13.9
2017-04-24T09:02:30.073Z,13.95
2017-04-24T09:03:30.454Z,14
2017-04-24T09:04:30.424Z,14.03
2017-04-24T09:05:30.435Z,14.07
2017-04-24T09:06:30.458Z,14.05
2017-04-24T09:07:30.472Z,14.22
2017-04-24T09:08:30.488Z,14.18
2017-04-24T09:09:30.507Z,14.29
2017-04-24T09:10:30.517Z,14.28
2017-04-24T09:11:30.545Z,14.36
2017-04-24T09:12:30.560Z,14.48
2017-04-24T09:13:30.567Z,14.43
2017-04-24T09:14:30.595Z,14.5
2017-04-24T09:15:30.601Z,14.55
2017-04-24T09:16:30.620Z,14.54
2017-04-24T09:17:30.636Z,14.65
2017-04-24T09:18:30.661Z,14.69
2017-04-24T09:19:30.675Z,14.69
2017-04-24T09:20:30.801Z,14.7
2017-04-24T09:21:30.817Z,14.77
2017-04-24T09:22:30.822Z,14.79
2017-04-24T09:23:30.807Z,14.85
2017-04-24T09:24:30.846Z,14.91
2017-04-24T09:25:30.460Z,14.91
2017-04-24T09:26:30.787Z,14.96
2017-04-24T09:27:30.925Z,15.04
2017-04-24T09:28:30.937Z,15.03
2017-04-24T09:29:30.939Z,15.03
2017-04-24T09:30:30.993Z,15.11
2017-04-24T09:31:30.878Z,15.1
2017-04-24T09:32:30.893Z,15.17
2017-04-24T09:33:30.911Z,15.22
2017-04-24T09:34:31.050Z,15.19
2017-04-24T09:35:31.069Z,15.24
2017-04-24T09:36:31.059Z,15.29
2017-04-24T09:37:31.079Z,15.35
2017-04-24T09:38:31.204Z,15.44
2017-04-24T09:39:31.209Z,15.51
2017-04-24T09:40:31.262Z,15.61
2017-04-24T09:41:31.264Z,15.65
2017-04-24T09:42:31.268Z,15.67
2017-04-24T09:43:31.239Z,15.73
2017-04-24T09:44:31.282Z,15.77
2017-04-24T09:45:31.271Z,15.91
2017-04-24T09:46:31.281Z,16.01
2017-04-24T09:47:31.247Z,15.98
2017-04-24T09:48:31.261Z,16.04
2017-04-24T09:49:31.339Z,16.05
2017-04-24T09:50:31.352Z,16.05
2017-04-24T09:51:31.406Z,16.09
2017-04-24T09:52:31.365Z,16.15
2017-04-24T09:53:31.371Z,16.17
2017-04-24T09:54:31.373Z,16.17
2017-04-24T09:55:31.069Z,16.2
2017-04-24T09:56:31.453Z,16.26
2017-04-24T09:57:31.498Z,16.29
2017-04-24T09:58:31.511Z,16.23
2017-04-24T09:59:31.450Z,16.38
2017-04-24T10:00:31.411Z,16.39
2017-04-24T10:01:31.452Z,16.36
2017-04-24T10:02:31.434Z,16.49
2017-04-24T10:03:31.126Z,16.51
2017-04-24T10:04:31.457Z,16.54
2017-04-24T10:05:31.478Z,16.51
2017-04-24T10:06:31.493Z,16.65
2017-04-24T10:07:31.513Z,16.68
2017-04-24T10:08:31.530Z,16.65
2017-04-24T10:09:31.575Z,16.75
2017-04-24T10:10:31.567Z,16.78
2017-04-24T10:11:31.593Z,16.81
2017-04-24T10:12:31.601Z,16.81
2017-04-24T10:13:31.624Z,16.81
2017-04-24T10:14:31.644Z,16.96
2017-04-24T10:15:31.662Z,16.89
2017-04-24T10:16:31.681Z,17.01
2017-04-24T10:17:31.696Z,16.9
2017-04-24T10:18:31.726Z,16.96
2017-04-24T10:19:31.424Z,17.04
2017-04-24T10:20:31.756Z,17.12
2017-04-24T10:21:31.771Z,17.23
2017-04-24T10:22:31.795Z,17.19
2017-04-24T10:23:31.825Z,17.26
2017-04-24T10:24:31.826Z,17.26
2017-04-24T10:25:31.856Z,17.31
2017-04-24T10:26:31.868Z,17.31
2017-04-24T10:27:31.883Z,17.34
2017-04-24T10:28:31.935Z,17.33
2017-04-24T10:29:31.925Z,17.51
2017-04-24T10:30:31.950Z,17.52
2017-04-24T10:31:31.963Z,17.56
2017-04-24T10:32:31.669Z,17.59
2017-04-24T10:33:32.000Z,17.7
2017-04-24T10:34:32.049Z,17.72
2017-04-24T10:35:32.039Z,17.79
2017-04-24T10:36:32.057Z,17.86
2017-04-24T10:37:32.079Z,17.92
2017-04-24T10:38:32.100Z,18.07
2017-04-24T10:39:32.123Z,18.03
2017-04-24T10:40:32.135Z,18.1
2017-04-24T10:41:32.155Z,18.08
2017-04-24T10:42:32.178Z,18.18
2017-04-24T10:43:32.192Z,18.28
2017-04-24T10:44:32.211Z,18.37
2017-04-24T10:45:32.229Z,18.4
2017-04-24T10:46:32.247Z,18.53
2017-04-24T10:47:32.344Z,18.6
2017-04-24T10:48:32.354Z,18.59
2017-04-24T10:49:32.397Z,18.7
2017-04-24T10:50:32.418Z,18.63
2017-04-24T10:51:32.398Z,18.7
2017-04-24T10:52:32.580Z,18.73
2017-04-24T10:53:32.522Z,18.7
2017-04-24T10:54:32.406Z,18.68
2017-04-24T10:55:32.433Z,18.8
2017-04-24T10:56:32.447Z,18.77
2017-04-24T10:57:32.469Z,18.78
2017-04-24T10:58:32.482Z,18.9
2017-04-24T10:59:32.514Z,18.84
2017-04-24T11:00:32.526Z,18.93
2017-04-24T11:01:32.550Z,18.99
2017-04-24T11:02:32.564Z,18.99
2017-04-24T11:03:32.588Z,19.07
2017-04-24T11:04:32.607Z,19.12
2017-04-24T11:05:32.627Z,19.18
2017-04-24T11:06:32.648Z,19.26
2017-04-24T11:07:32.355Z,19.33
2017-04-24T11:08:32.692Z,19.34
2017-04-24T11:09:32.706Z,19.4
2017-04-24T11:10:32.724Z,19.48
2017-04-24T11:11:32.751Z,19.49
2017-04-24T11:12:32.769Z,19.55
2017-04-24T11:13:32.789Z,19.69
2017-04-24T11:14:32.815Z,19.54
2017-04-24T11:15:32.836Z,19.59
2017-04-24T11:16:32.851Z,19.62
2017-04-24T11:17:32.873Z,19.67
2017-04-24T11:18:32.890Z,19.66
2017-04-24T11:19:32.935Z,19.74
2017-04-24T11:20:32.931Z,19.79
2017-04-24T11:21:32.641Z,19.77
2017-04-24T11:22:32.973Z,19.89
2017-04-24T11:23:32.681Z,19.92
2017-04-24T11:24:33.039Z,19.95
2017-04-24T11:25:32.725Z,19.99
2017-04-24T11:26:33.060Z,19.96
2017-04-24T11:27:33.077Z,20.04
2017-04-24T11:28:33.102Z,20.16
2017-04-24T11:29:33.121Z,20.09
2017-04-24T11:30:33.148Z,20.18
2017-04-24T11:31:33.159Z,20.28
2017-04-24T11:32:33.188Z,20.32
2017-04-24T11:33:33.202Z,20.29
2017-04-24T11:34:33.229Z,20.41
2017-04-24T11:35:33.247Z,20.5
2017-04-24T11:36:33.272Z,20.43
2017-04-24T11:37:33.291Z,20.51
2017-04-24T11:38:33.310Z,20.5
2017-04-24T11:39:33.337Z,20.5
2017-04-24T11:40:33.350Z,20.56
2017-04-24T11:41:33.373Z,20.67
2017-04-24T11:42:33.398Z,20.56
2017-04-24T11:43:33.420Z,20.63
2017-04-24T11:44:33.441Z,20.72
2017-04-24T11:45:33.465Z,20.78
2017-04-24T11:46:33.481Z,20.75
2017-04-24T11:47:33.506Z,20.85
2017-04-24T11:48:33.538Z,20.87
2017-04-24T11:49:33.233Z,20.88
2017-04-24T11:50:33.576Z,20.95
2017-04-24T11:51:33.590Z,21.03
2017-04-24T11:52:33.611Z,21.09
2017-04-24T11:53:33.633Z,21.15
2017-04-24T11:54:33.340Z,21.15
2017-04-24T11:55:33.684Z,21.22
2017-04-24T11:56:33.701Z,21.27
2017-04-24T11:57:33.724Z,21.37
2017-04-24T11:58:33.770Z,21.39
2017-04-24T11:59:33.765Z,21.42
2017-04-24T12:00:33.789Z,21.43
2017-04-24T12:01:33.811Z,21.43
2017-04-24T12:02:33.829Z,21.52
2017-04-24T12:03:33.858Z,21.6
2017-04-24T12:04:33.873Z,21.58
2017-04-24T12:05:33.894Z,21.6
2017-04-24T12:06:33.921Z,21.73
2017-04-24T12:07:33.941Z,21.66
2017-04-24T12:08:33.960Z,21.79
2017-04-24T12:09:33.980Z,21.77
2017-04-24T12:10:34.008Z,21.88
2017-04-24T12:11:34.028Z,21.89
2017-04-24T12:12:34.056Z,21.91
2017-04-24T12:13:34.079Z,21.96
2017-04-24T12:14:34.095Z,21.99
2017-04-24T12:15:33.806Z,22
2017-04-24T12:16:34.139Z,22.06
2017-04-24T12:17:34.165Z,22.08
2017-04-24T12:18:34.191Z,22.15
2017-04-24T12:19:34.208Z,22.25
2017-04-24T12:20:34.230Z,22.22
2017-04-24T12:21:34.253Z,22.25
2017-04-24T12:22:34.282Z,22.3
2017-04-24T12:23:34.297Z,22.32
2017-04-24T12:24:34.321Z,22.43
2017-04-24T12:25:34.036Z,22.39
2017-04-24T12:26:34.365Z,22.55
2017-04-24T12:27:34.074Z,22.53
2017-04-24T12:28:34.414Z,22.54
2017-04-24T12:29:34.432Z,22.5
2017-04-24T12:30:34.458Z,22.54
2017-04-24T12:31:34.478Z,22.6
2017-04-24T12:32:34.514Z,22.66
2017-04-24T12:33:34.526Z,22.63
2017-04-24T12:34:34.545Z,22.69
2017-04-24T12:35:34.568Z,22.76
2017-04-24T12:36:34.600Z,22.84
2017-04-24T12:37:34.305Z,22.9
2017-04-24T12:38:34.637Z,22.84
2017-04-24T12:39:34.662Z,22.91
2017-04-24T12:40:34.690Z,22.98
2017-04-24T12:41:34.703Z,23
2017-04-24T12:42:34.419Z,22.99
2017-04-24T12:43:34.758Z,23.03
2017-04-24T12:44:34.776Z,23.09
2017-04-24T12:45:34.800Z,23.1
2017-04-24T12:46:34.820Z,23.17
2017-04-24T12:47:34.849Z,23.08
2017-04-24T12:48:34.869Z,23.23
2017-04-24T12:49:34.580Z,23.23
2017-04-24T12:50:34.916Z,23.24
2017-04-24T12:51:34.938Z,23.32
2017-04-24T12:52:34.966Z,23.27
2017-04-24T12:53:34.987Z,23.34
2017-04-24T12:54:35.015Z,23.39
2017-04-24T12:55:35.033Z,23.5
2017-04-24T12:56:35.073Z,23.51
2017-04-24T12:57:35.079Z,23.54
2017-04-24T12:58:35.105Z,23.54
2017-04-24T12:59:35.127Z,23.56
2017-04-24T13:00:35.162Z,23.62
2017-04-24T13:01:34.864Z,23.58
2017-04-24T13:02:35.208Z,23.62
2017-04-24T13:03:35.221Z,23.58
2017-04-24T13:04:35.278Z,23.66
2017-04-24T13:05:35.276Z,23.71
2017-04-24T13:06:34.981Z,23.74
2017-04-24T13:07:35.321Z,23.77
2017-04-24T13:08:35.346Z,23.69
2017-04-24T13:09:35.049Z,23.81
2017-04-24T13:10:35.388Z,23.77